Gaz Century — H9NS — position and weather

sailwx.info

Track history (hours):
 
Tides and Currents Weather Stations Pressure Air Temp Water Temp Dewpoint Dewpoint Depression Visibility Wind Speed Wind Dir Waves Ship Positions

Gaz Century

Last reported at 2017-Nov-18 06:36 UTC. Time now 2017-Nov-20 23:09 UTC.
Position N 33°55' E 033°05'.

Length 113 m; draft 5.9 m.

Type: Ship (hazmat cat A). MMSI: 352019000.

Date/timePositionNaut miles runAvg speedWind from/ knotsBaromVisibWave heightAir tempDewpointWater temp
2017-Nov-18 06:36N 33°55' E 033°05'112.2
2017-Nov-18 06:31N 33°55' E 033°03'612.5
2017-Nov-18 06:01N 33°58' E 032°57'612.4
2017-Nov-18 05:31N 34°02' E 032°51'6 0.6
2017-Nov-17 20:53N 34°07' E 032°48'0 0.6
2017-Nov-17 20:29N 34°07' E 032°48'0 0.6
2017-Nov-17 20:00N 34°07' E 032°48'0 0.6
2017-Nov-17 19:31N 34°07' E 032°49'0 0.7
2017-Nov-17 19:00N 34°07' E 032°49'0 0.7
2017-Nov-17 18:25N 34°07' E 032°49'3 0.2
2017-Nov-16 20:28N 34°10' E 032°52'24 6.3
2017-Nov-16 16:39N 34°32' E 033°04'511.6
2017-Nov-16 16:14N 34°36' E 033°05'310.6
2017-Nov-16 15:58N 34°39' E 033°05'1 0.1
2017-Nov-16 09:58N 34°40' E 033°06'  
2017-Nov-12 13:37N 36°00' E 014°59'1 8.7
2017-Nov-12 13:30N 36°00' E 014°58'11 0.4
2017-Nov-11 12:48N 35°57' E 015°11'0 0.9
2017-Nov-11 12:21N 35°57' E 015°12'0 1.0
2017-Nov-11 12:00N 35°58' E 015°12'0 0.9
2017-Nov-11 11:30N 35°58' E 015°13'1 0.7
2017-Nov-11 10:30N 35°58' E 015°14'0 0.6
2017-Nov-11 09:57N 35°58' E 015°14'  
Track history (hours):
 
Tides and Currents Weather Stations Pressure Air Temp Water Temp Dewpoint Dewpoint Depression Visibility Wind Speed Wind Dir Waves Ship Positions

Gaz Century

Last reported at 2017-Nov-18 06:36 UTC. Time now 2017-Nov-20 23:09 UTC.
Position N 33°55' E 033°05'.

Length 113 m; draft 5.9 m.

Type: Ship (hazmat cat A). MMSI: 352019000.

Date/timePositionNaut miles runAvg speedWind from/ knotsBaromVisibWave heightAir tempDewpointWater temp
2017-Nov-18 06:36N 33°55' E 033°05'112.2
2017-Nov-18 06:31N 33°55' E 033°03'612.5
2017-Nov-18 06:01N 33°58' E 032°57'612.4
2017-Nov-18 05:31N 34°02' E 032°51'6 0.6
2017-Nov-17 20:53N 34°07' E 032°48'0 0.6
2017-Nov-17 20:29N 34°07' E 032°48'0 0.6
2017-Nov-17 20:00N 34°07' E 032°48'0 0.6
2017-Nov-17 19:31N 34°07' E 032°49'0 0.7
2017-Nov-17 19:00N 34°07' E 032°49'0 0.7
2017-Nov-17 18:25N 34°07' E 032°49'3 0.2
2017-Nov-16 20:28N 34°10' E 032°52'24 6.3
2017-Nov-16 16:39N 34°32' E 033°04'511.6
2017-Nov-16 16:14N 34°36' E 033°05'310.6
2017-Nov-16 15:58N 34°39' E 033°05'1 0.1
2017-Nov-16 09:58N 34°40' E 033°06'  
2017-Nov-12 13:37N 36°00' E 014°59'1 8.7
2017-Nov-12 13:30N 36°00' E 014°58'11 0.4
2017-Nov-11 12:48N 35°57' E 015°11'0 0.9
2017-Nov-11 12:21N 35°57' E 015°12'0 1.0
2017-Nov-11 12:00N 35°58' E 015°12'0 0.9
2017-Nov-11 11:30N 35°58' E 015°13'1 0.7
2017-Nov-11 10:30N 35°58' E 015°14'0 0.6
2017-Nov-11 09:57N 35°58' E 015°14'  

Dump ship's entire track history